createdAt,value
2022-10-15T03:07:54.247Z,14.4
2022-10-15T04:56:14.420Z,14
2022-10-15T05:02:06.180Z,14
2022-10-15T05:07:58.991Z,14
2022-10-15T05:13:50.808Z,14
2022-10-15T05:19:42.246Z,13.9
2022-10-15T05:25:34.945Z,13.9
2022-10-15T05:31:26.069Z,13.8
2022-10-15T05:37:17.550Z,13.8
2022-10-15T05:43:11.773Z,13.9
2022-10-15T05:49:12.468Z,13.8
2022-10-15T05:55:11.282Z,13.7
2022-10-15T06:01:05.293Z,13.7
2022-10-15T06:06:56.328Z,13.6
2022-10-15T06:18:59.223Z,13.4
2022-10-15T06:24:50.967Z,13.4
2022-10-15T06:30:47.569Z,13.3
2022-10-15T06:36:40.607Z,13.4
2022-10-15T06:42:36.304Z,13.5
2022-10-15T06:48:27.645Z,13.4
2022-10-15T06:54:31.591Z,13.6
2022-10-15T07:00:24.591Z,13.6
2022-10-15T07:06:19.582Z,13.7
2022-10-15T07:12:11.003Z,13.8
2022-10-15T07:18:08.148Z,13.9
2022-10-15T07:24:01.847Z,14.1
2022-10-15T07:29:54.499Z,14.1
2022-10-15T07:35:47.839Z,14.3
2022-10-15T07:41:40.947Z,14.4
2022-10-15T07:47:32.297Z,14.4
2022-10-15T07:53:22.961Z,14.4
2022-10-15T07:59:15.102Z,14.4
2022-10-15T08:05:04.939Z,14.5
2022-10-15T08:10:56.959Z,14.7
2022-10-15T08:16:48.949Z,14.8
2022-10-15T08:22:42.394Z,14.9
2022-10-15T08:28:34.598Z,15
2022-10-15T08:34:32.550Z,15.1
2022-10-15T08:40:31.833Z,15.2
2022-10-15T08:46:29.360Z,15.3
2022-10-15T08:52:24.841Z,15.4
2022-10-15T08:58:42.536Z,15.6
2022-10-15T09:04:37.632Z,15.8
2022-10-15T09:10:52.267Z,16
2022-10-15T09:30:05.202Z,16.3
2022-10-15T09:49:42.605Z,16.7
2022-10-15T09:55:54.482Z,16.7
2022-10-15T11:07:16.062Z,19.2
2022-10-15T11:13:08.431Z,19.2
2022-10-15T11:19:03.621Z,19.4
2022-10-15T11:26:51.667Z,19.4
2022-10-15T11:33:07.919Z,19.2
2022-10-15T11:39:00.517Z,19.3
2022-10-15T11:44:54.152Z,19.4
2022-10-15T11:50:45.499Z,19.2
2022-10-15T11:56:38.744Z,19.2
2022-10-15T12:02:32.413Z,19.3
2022-10-15T12:08:24.342Z,19.3
2022-10-15T12:14:16.906Z,19.3
2022-10-15T12:20:08.880Z,19.5
2022-10-15T12:26:00.540Z,19.9
2022-10-15T12:31:51.852Z,20
2022-10-15T12:37:43.513Z,20
2022-10-15T12:43:34.965Z,20.1
2022-10-15T12:49:25.825Z,20.1
2022-10-15T12:55:17.039Z,20.1
2022-10-15T13:01:08.246Z,20.1
2022-10-15T13:07:00.574Z,20.3
2022-10-15T13:12:52.352Z,20.5
2022-10-15T13:18:43.772Z,20.5
2022-10-15T13:24:35.526Z,20.5
2022-10-15T13:30:26.528Z,20.5
2022-10-15T13:36:20.498Z,20.6
2022-10-15T13:42:13.138Z,20.7
2022-10-15T13:48:04.501Z,20.6
2022-10-15T13:53:56.858Z,20.7
2022-10-15T13:59:49.654Z,20.5
2022-10-15T14:05:40.516Z,20.5
2022-10-15T14:11:33.061Z,20.6
2022-10-15T14:17:23.208Z,20.6
2022-10-15T14:23:17.003Z,20.5
2022-10-15T14:29:07.906Z,20.4
2022-10-15T14:34:59.070Z,20.5
2022-10-15T14:40:56.807Z,20.4
2022-10-15T14:46:53.448Z,20.3
2022-10-15T14:52:44.476Z,20.2
2022-10-15T14:58:38.041Z,20.1
2022-10-15T15:04:29.632Z,20
2022-10-15T15:10:21.559Z,19.9
2022-10-15T15:16:13.239Z,19.9
2022-10-15T15:22:05.645Z,19.8
2022-10-15T15:27:56.234Z,19.7
2022-10-15T15:33:47.085Z,19.7
2022-10-15T15:39:39.522Z,19.6
2022-10-15T15:45:30.953Z,19.4
2022-10-15T15:51:22.047Z,19.3
2022-10-15T15:57:13.331Z,19.2
2022-10-15T16:03:04.923Z,19.1
2022-10-15T16:08:55.465Z,19.1
2022-10-15T16:14:46.117Z,19
2022-10-15T16:20:38.040Z,19
2022-10-15T16:26:34.401Z,18.9
2022-10-15T16:32:24.900Z,18.8
2022-10-15T16:38:17.164Z,18.7
2022-10-15T16:44:07.493Z,18.3
2022-10-15T16:49:58.870Z,18.2
2022-10-15T16:55:50.333Z,18
2022-10-15T17:01:41.224Z,18
